Time;durP1;ratioP1;P1;durP2;ratioP2;P2;SDS_P1;SDS_P2;PMS_P1;PMS_P2;Temp;Humidity;BMP_temperature;BMP_pressure;BME280_temperature;BME280_humidity;BME280_pressure;Samples;Min_cycle;Max_cycle;Signal;HPM_P1;HPM_P2
2023/07/11 07:54:13;;;;;;;1999.90;999.90;;;26.70;99.90;;;;;;5000099;23;20904;-71
2023/07/11 07:56:38;;;;;;;1999.90;999.90;;;27.90;99.90;;;;;;4907734;29;20465;-71
2023/07/11 07:59:04;;;;;;;1999.90;999.90;;;27.40;99.90;;;;;;4926195;28;20066;-70
2023/07/11 08:01:30;;;;;;;1999.90;999.90;;;26.80;99.90;;;;;;4929450;28;20031;-70
2023/07/11 08:03:55;;;;;;;1999.90;999.90;;;26.10;99.90;;;;;;4936597;28;20039;-70
2023/07/11 08:06:21;;;;;;;1999.90;999.90;;;25.60;99.90;;;;;;4931413;28;20082;-70
2023/07/11 08:08:48;;;;;;;1999.90;999.90;;;25.50;99.90;;;;;;4933643;28;20061;-70
2023/07/11 08:11:15;;;;;;;1999.90;999.90;;;25.60;99.90;;;;;;4930553;28;20469;-70
2023/07/11 08:13:40;;;;;;;1999.90;999.90;;;25.80;99.90;;;;;;4936014;28;20125;-70
2023/07/11 08:16:06;;;;;;;1999.90;999.90;;;25.50;99.90;;;;;;4936120;28;20824;-70
2023/07/11 08:18:32;;;;;;;1999.90;999.90;;;25.60;99.90;;;;;;4945072;28;20541;-70
2023/07/11 08:20:58;;;;;;;1999.90;999.90;;;26.00;99.90;;;;;;4933349;28;20039;-71
2023/07/11 08:23:23;;;;;;;1999.90;999.90;;;26.50;99.90;;;;;;4935339;28;20537;-70
2023/07/11 08:25:53;;;;;;;1999.90;999.90;;;27.20;99.90;;;;;;4930334;29;20030;-70
2023/07/11 08:28:19;;;;;;;1999.90;999.90;;;27.10;99.90;;;;;;4929213;28;20123;-70
2023/07/11 08:30:44;;;;;;;1999.90;999.90;;;28.50;99.90;;;;;;4920214;28;20035;-71
2023/07/11 08:33:10;;;;;;;1999.90;999.90;;;29.80;99.90;;;;;;4926804;28;20042;-71
2023/07/11 08:35:36;;;;;;;1999.90;999.90;;;30.40;99.90;;;;;;4924090;28;20748;-71
2023/07/11 08:38:03;;;;;;;1999.90;999.90;;;29.10;99.90;;;;;;4912687;28;20039;-70
2023/07/11 08:40:32;;;;;;;1999.90;999.90;;;28.30;99.90;;;;;;4934841;28;20070;-70
2023/07/11 08:43:04;;;;;;;1999.90;999.90;;;26.70;99.90;;;;;;4923118;28;20032;-70
2023/07/11 08:45:34;;;;;;;1999.90;999.90;;;25.80;99.90;;;;;;4916691;29;20817;-70
2023/07/11 08:48:02;;;;;;;1999.90;999.90;;;25.10;99.90;;;;;;4930757;29;20081;-70
2023/07/11 08:50:33;;;;;;;1999.90;999.90;;;24.90;99.90;;;;;;4929786;28;20038;-70
2023/07/11 08:53:09;;;;;;;1999.90;999.90;;;24.60;99.90;;;;;;4930860;28;20081;-69
2023/07/11 08:55:41;;;;;;;1999.90;999.90;;;24.60;99.90;;;;;;4926039;28;20031;-70
2023/07/11 08:58:15;;;;;;;1999.90;999.90;;;24.70;99.90;;;;;;4936690;28;20023;-70
2023/07/11 09:00:45;;;;;;;1999.90;999.90;;;24.90;99.90;;;;;;4930571;28;20046;-70
2023/07/11 09:03:26;;;;;;;1999.90;999.90;;;24.90;99.90;;;;;;4926747;29;20154;-70
2023/07/11 09:06:15;;;;;;;1999.90;999.90;;;24.90;99.90;;;;;;4924117;29;20462;-70
2023/07/11 09:08:46;;;;;;;1999.90;999.90;;;24.90;99.90;;;;;;4931295;28;20030;-70
2023/07/11 09:11:15;;;;;;;1999.90;999.90;;;24.90;99.90;;;;;;4929791;28;20163;-70
2023/07/11 09:13:46;;;;;;;1999.90;999.90;;;25.00;99.90;;;;;;4927409;29;20035;-71
2023/07/11 09:16:33;;;;;;;1999.90;999.90;;;25.10;99.90;;;;;;4926984;29;20373;-70
2023/07/11 09:19:36;;;;;;;1999.90;999.90;;;25.20;99.90;;;;;;4928255;28;20130;-70
2023/07/11 09:22:35;;;;;;;1999.90;999.90;;;25.20;99.90;;;;;;4924076;28;20799;-71
2023/07/11 09:25:18;;;;;;;1999.90;999.90;;;25.30;99.90;;;;;;4938406;28;20812;-71
2023/07/11 09:28:26;;;;;;;1999.90;999.90;;;25.90;99.90;;;;;;4922522;29;20030;-71
2023/07/11 09:30:55;;;;;;;1999.90;999.90;;;26.70;99.90;;;;;;4925297;28;20126;-71
2023/07/11 09:33:22;;;;;;;1999.90;999.90;;;26.60;99.90;;;;;;4925372;28;20028;-70
2023/07/11 09:35:50;;;;;;;1999.90;999.90;;;26.30;99.90;;;;;;4930635;28;20034;-70
2023/07/11 09:38:27;;;;;;;1999.90;999.90;;;26.00;99.90;;;;;;4914388;29;20024;-71
2023/07/11 09:41:19;;;;;;;1999.90;999.90;;;26.10;99.90;;;;;;4915309;28;20454;-71
2023/07/11 09:43:45;;;;;;;1999.90;999.90;;;26.30;99.90;;;;;;4921202;29;20035;-71
2023/07/11 09:46:16;;;;;;;1999.90;999.90;;;25.90;99.90;;;;;;4929554;29;20155;-70
2023/07/11 09:48:44;;;;;;;1999.90;999.90;;;26.50;99.90;;;;;;4924916;29;20023;-70
2023/07/11 09:51:36;;;;;;;1999.90;999.90;;;27.10;99.90;;;;;;4929656;29;20026;-71
2023/07/11 09:54:15;;;;;;;1999.90;999.90;;;26.80;99.90;;;;;;4921167;28;20463;-71
2023/07/11 09:56:46;;;;;;;1999.90;999.90;;;26.40;99.90;;;;;;4932833;28;20370;-71
2023/07/11 09:59:13;;;;;;;1999.90;999.90;;;26.60;99.90;;;;;;4929973;29;20808;-70
2023/07/11 10:01:39;;;;;;;1999.90;999.90;;;26.40;99.90;;;;;;4920904;29;20039;-70
2023/07/11 10:04:22;;;;;;;1999.90;999.90;;;27.00;99.90;;;;;;4919243;29;20038;-71
2023/07/11 10:06:56;;;;;;;1999.90;999.90;;;28.20;99.90;;;;;;4926612;28;20031;-70
2023/07/11 10:09:29;;;;;;;1999.90;999.90;;;28.30;99.90;;;;;;4934279;28;20042;-70
2023/07/11 10:12:13;;;;;;;1999.90;999.90;;;28.00;99.90;;;;;;4926474;28;20109;-70
2023/07/11 10:14:41;;;;;;;1999.90;999.90;;;27.50;99.90;;;;;;4921833;29;20039;-70
2023/07/11 10:17:18;;;;;;;1999.90;999.90;;;27.40;99.90;;;;;;4914228;29;20085;-70
2023/07/11 10:19:46;;;;;;;1999.90;999.90;;;27.50;99.90;;;;;;4927140;29;20755;-70
2023/07/11 10:22:19;;;;;;;1999.90;999.90;;;27.50;99.90;;;;;;4924131;28;20105;-70
2023/07/11 10:24:45;;;;;;;1999.90;999.90;;;27.40;99.90;;;;;;4923321;29;20027;-70
2023/07/11 10:27:16;;;;;;;1999.90;999.90;;;27.80;99.90;;;;;;4927983;29;20856;-71
2023/07/11 10:29:54;;;;;;;1999.90;999.90;;;28.50;99.90;;;;;;4928408;28;20808;-70
2023/07/11 10:32:33;;;;;;;1999.90;999.90;;;28.20;99.90;;;;;;4932860;28;20030;-71
2023/07/11 10:35:05;;;;;;;1999.90;999.90;;;28.00;99.90;;;;;;4937073;28;20512;-70
2023/07/11 10:37:39;;;;;;;1999.90;999.90;;;27.80;99.90;;;;;;4927532;28;20780;-71
2023/07/11 10:40:12;;;;;;;1999.90;999.90;;;27.40;99.90;;;;;;4927655;28;20078;-70
2023/07/11 10:42:45;;;;;;;1999.90;999.90;;;26.80;99.90;;;;;;4906921;29;20035;-71
2023/07/11 10:45:31;;;;;;;1999.90;999.90;;;27.20;99.90;;;;;;4925598;29;20754;-71
2023/07/11 10:48:23;;;;;;;1999.90;999.90;;;27.50;99.90;;;;;;4928368;28;20039;-70
2023/07/11 10:51:06;;;;;;;1999.90;999.90;;;27.80;99.90;;;;;;4929400;29;20673;-70
2023/07/11 10:53:43;;;;;;;1999.90;999.90;;;27.90;99.90;;;;;;4895341;29;20051;-70
2023/07/11 10:56:17;;;;;;;1999.90;999.90;;;27.40;99.90;;;;;;4901582;29;20038;-70
2023/07/11 10:58:43;;;;;;;1999.90;999.90;;;27.60;99.90;;;;;;4918503;29;20035;-71
2023/07/11 11:01:29;;;;;;;1999.90;999.90;;;27.80;99.90;;;;;;4914867;28;20039;-70
2023/07/11 11:04:13;;;;;;;1999.90;999.90;;;27.60;99.90;;;;;;4912110;29;20074;-70
2023/07/11 11:06:57;;;;;;;1999.90;999.90;;;28.30;99.90;;;;;;4907710;29;20035;-70
2023/07/11 11:09:39;;;;;;;1999.90;999.90;;;28.60;99.90;;;;;;4913793;29;20024;-71
2023/07/11 11:12:28;;;;;;;1999.90;999.90;;;29.30;99.90;;;;;;4909889;29;20067;-70
2023/07/11 11:15:12;;;;;;;1999.90;999.90;;;29.10;99.90;;;;;;4905082;29;20118;-71
2023/07/11 11:17:57;;;;;;;1999.90;999.90;;;29.00;99.90;;;;;;4908698;29;20035;-70
2023/07/11 11:20:37;;;;;;;1999.90;999.90;;;29.50;99.90;;;;;;4905924;29;20032;-70
2023/07/11 11:23:38;;;;;;;1999.90;999.90;;;29.50;99.90;;;;;;4908865;29;20074;-70
2023/07/11 11:26:14;;;;;;;1999.90;999.90;;;29.20;99.90;;;;;;4903539;29;20895;-69
2023/07/11 11:28:43;;;;;;;1999.90;999.90;;;29.50;99.90;;;;;;4891687;29;20862;-70
2023/07/11 11:31:08;;;;;;;1999.90;999.90;;;28.70;99.90;;;;;;4908575;29;20032;-69
2023/07/11 11:34:09;;;;;;;1999.90;999.90;;;29.40;99.90;;;;;;4910021;29;20047;-70
2023/07/11 11:36:57;;;;;;;1999.90;999.90;;;28.60;99.90;;;;;;4908632;29;20107;-70
2023/07/11 11:39:47;;;;;;;1999.90;999.90;;;28.20;99.90;;;;;;4908398;29;20254;-69
2023/07/11 11:42:22;;;;;;;1999.90;999.90;;;28.10;99.90;;;;;;4901619;29;20812;-70
2023/07/11 11:44:55;;;;;;;1999.90;999.90;;;28.90;99.90;;;;;;4906512;29;20036;-70
2023/07/11 11:47:22;;;;;;;1999.90;999.90;;;30.20;99.90;;;;;;4904425;29;20027;-70
2023/07/11 11:49:49;;;;;;;1999.90;999.90;;;31.40;99.90;;;;;;4908429;29;20031;-71
2023/07/11 11:52:14;;;;;;;1999.90;999.90;;;31.10;99.90;;;;;;4909671;28;20142;-70
2023/07/11 11:54:46;;;;;;;1999.90;999.90;;;30.90;99.90;;;;;;4943050;28;20046;-70
2023/07/11 11:57:31;;;;;;;;;;;30.70;99.90;;;;;;4934155;28;20031;-70
2023/07/11 11:59:58;;;;;;;1999.90;999.90;;;30.60;99.90;;;;;;4933041;28;19915;-70
2023/07/11 12:02:34;;;;;;;1999.90;999.90;;;29.50;99.90;;;;;;4931287;29;20106;-71
2023/07/11 12:05:09;;;;;;;1999.90;999.90;;;28.50;99.90;;;;;;4930300;28;20137;-70
2023/07/11 12:07:39;;;;;;;1999.90;999.90;;;29.10;99.90;;;;;;4931730;29;20134;-70
2023/07/11 12:10:14;;;;;;;1999.90;999.90;;;29.90;99.90;;;;;;4918899;29;20077;-71
2023/07/11 12:12:40;;;;;;;1999.90;999.90;;;30.60;99.90;;;;;;4930771;29;20066;-69
2023/07/11 12:15:12;;;;;;;1999.90;999.90;;;30.60;99.90;;;;;;4931141;28;20069;-71
2023/07/11 12:17:40;;;;;;;1999.90;999.90;;;30.20;99.90;;;;;;4924875;29;20063;-70
2023/07/11 12:20:05;;;;;;;1999.90;999.90;;;29.30;99.90;;;;;;4908318;29;20035;-69
2023/07/11 12:22:37;;;;;;;1999.90;999.90;;;29.70;99.90;;;;;;4931427;29;20047;-69
2023/07/11 12:25:06;;;;;;;1999.90;999.90;;;29.60;99.90;;;;;;4938794;28;20031;-69
2023/07/11 12:27:34;;;;;;;1999.90;999.90;;;29.40;99.90;;;;;;4931256;29;20038;-69
2023/07/11 12:30:20;;;;;;;1999.90;999.90;;;29.50;99.90;;;;;;4929559;29;20038;-70
2023/07/11 12:32:49;;;;;;;1999.90;999.90;;;28.90;99.90;;;;;;4926066;29;20049;-70
2023/07/11 12:35:16;;;;;;;1999.90;999.90;;;28.30;99.90;;;;;;4935098;28;20286;-70
2023/07/11 12:38:00;;;;;;;1999.90;999.90;;;28.00;99.90;;;;;;4928822;28;20082;-70
2023/07/11 12:41:00;;;;;;;1999.90;999.90;;;27.70;99.90;;;;;;4904729;29;20151;-70
2023/07/11 12:43:32;;;;;;;1999.90;999.90;;;26.90;99.90;;;;;;4920400;28;20118;-70
2023/07/11 12:46:07;;;;;;;1999.90;999.90;;;26.70;99.90;;;;;;4928392;29;20027;-70
2023/07/11 12:48:38;;;;;;;1999.90;999.90;;;26.60;99.90;;;;;;4909001;29;20078;-69
2023/07/11 12:51:21;;;;;;;1999.90;999.90;;;26.90;99.90;;;;;;4908743;29;20027;-69
2023/07/11 12:53:50;;;;;;;1999.90;999.90;;;26.80;99.90;;;;;;4933174;28;20430;-70
2023/07/11 12:56:16;;;;;;;1999.90;999.90;;;27.20;99.90;;;;;;4940195;28;20450;-69
2023/07/11 12:58:41;;;;;;;1999.90;999.90;;;26.90;99.90;;;;;;4928891;28;20027;-70
2023/07/11 13:01:13;;;;;;;1999.90;999.90;;;27.00;99.90;;;;;;4937320;28;20051;-70
2023/07/11 13:03:39;;;;;;;1999.90;999.90;;;27.70;99.90;;;;;;4931739;28;20030;-70
2023/07/11 13:06:17;;;;;;;1999.90;999.90;;;27.40;99.90;;;;;;4926961;29;20661;-70
2023/07/11 13:08:43;;;;;;;1999.90;999.90;;;27.20;99.90;;;;;;4927740;28;20034;-70
2023/07/11 13:11:20;;;;;;;1999.90;999.90;;;27.70;99.90;;;;;;4926552;29;20457;-70
2023/07/11 13:13:46;;;;;;;1999.90;999.90;;;26.80;99.90;;;;;;4922532;29;20916;-70
2023/07/11 13:16:13;;;;;;;1999.90;999.90;;;26.90;99.90;;;;;;4926740;28;20636;-69
2023/07/11 13:18:42;;;;;;;1999.90;999.90;;;26.80;99.90;;;;;;4932119;28;20445;-70
2023/07/11 13:21:09;;;;;;;1999.90;999.90;;;26.50;99.90;;;;;;4909873;29;20126;-69
2023/07/11 13:23:37;;;;;;;1999.90;999.90;;;26.50;99.90;;;;;;4937521;28;20049;-69
2023/07/11 13:26:19;;;;;;;1999.90;999.90;;;26.50;99.90;;;;;;4952317;29;20054;-69
2023/07/11 13:28:45;;;;;;;1999.90;999.90;;;26.50;99.90;;;;;;4961786;28;20023;-70
2023/07/11 13:31:26;;;;;;;1999.90;999.90;;;26.60;99.90;;;;;;4953712;29;20051;-71
2023/07/11 13:34:19;;;;;;;1999.90;999.90;;;26.80;99.90;;;;;;4944707;29;20040;-70
2023/07/11 13:36:49;;;;;;;1999.90;999.90;;;26.70;99.90;;;;;;4941026;29;20416;-70
2023/07/11 13:39:33;;;;;;;1999.90;999.90;;;26.70;99.90;;;;;;4941183;29;20494;-70
2023/07/11 13:42:08;;;;;;;1999.90;999.90;;;26.70;99.90;;;;;;4952959;29;20039;-69
2023/07/11 13:44:38;;;;;;;1999.90;999.90;;;26.30;99.90;;;;;;4948793;28;20569;-70
2023/07/11 13:47:32;;;;;;;1999.90;999.90;;;26.40;99.90;;;;;;4946182;29;20020;-69
2023/07/11 13:50:08;;;;;;;1999.90;999.90;;;26.50;99.90;;;;;;4947614;29;20027;-69
2023/07/11 13:52:52;;;;;;;1999.90;999.90;;;26.00;99.90;;;;;;4946743;29;20403;-70
2023/07/11 13:55:38;;;;;;;1999.90;999.90;;;26.80;99.90;;;;;;4950519;29;20410;-69
2023/07/11 13:58:05;;;;;;;1999.90;999.90;;;27.40;99.90;;;;;;4953462;29;20086;-70
2023/07/11 14:00:30;;;;;;;1999.90;999.90;;;27.30;99.90;;;;;;4935298;29;20086;-69
2023/07/11 14:02:58;;;;;;;1999.90;999.90;;;26.50;99.90;;;;;;4935941;28;20039;-69
2023/07/11 14:05:27;;;;;;;1999.90;999.90;;;26.70;99.90;;;;;;4949037;29;20502;-69
2023/07/11 14:07:55;;;;;;;1999.90;999.90;;;26.70;99.90;;;;;;4953240;29;20019;-69
2023/07/11 14:10:24;;;;;;;1999.90;999.90;;;26.30;99.90;;;;;;4953759;28;20081;-69
2023/07/11 14:12:50;;;;;;;1999.90;999.90;;;26.60;99.90;;;;;;4949110;28;20023;-71
2023/07/11 14:15:18;;;;;;;1999.90;999.90;;;27.00;99.90;;;;;;4946981;28;20034;-69
2023/07/11 14:17:45;;;;;;;1999.90;999.90;;;26.20;99.90;;;;;;4956806;28;20390;-69
2023/07/11 14:20:19;;;;;;;1999.90;999.90;;;25.70;99.90;;;;;;4960434;28;20482;-69
2023/07/11 14:22:46;;;;;;;1999.90;999.90;;;25.30;99.90;;;;;;4935581;29;20023;-69
2023/07/11 14:25:28;;;;;;;1999.90;999.90;;;25.10;99.90;;;;;;4953344;28;20030;-69
2023/07/11 14:27:55;;;;;;;1999.90;999.90;;;25.10;99.90;;;;;;4949449;29;20489;-69
2023/07/11 14:30:21;;;;;;;1999.90;999.90;;;25.10;99.90;;;;;;4957185;28;20063;-69
2023/07/11 14:32:47;;;;;;;1999.90;999.90;;;24.80;99.90;;;;;;4955206;28;20066;-69
2023/07/11 14:35:18;;;;;;;1999.90;999.90;;;25.00;99.90;;;;;;4953619;28;20031;-69
2023/07/11 14:37:44;;;;;;;1999.90;999.90;;;25.20;99.90;;;;;;4953499;28;20549;-68
2023/07/11 14:40:33;;;;;;;1999.90;999.90;;;24.80;99.90;;;;;;4963526;28;20508;-69
2023/07/11 14:42:59;;;;;;;1999.90;999.90;;;24.60;99.90;;;;;;4953176;28;20047;-68
2023/07/11 14:45:26;;;;;;;1999.90;999.90;;;24.60;99.90;;;;;;4949283;28;20031;-68
2023/07/11 14:47:53;;;;;;;1999.90;999.90;;;24.50;99.90;;;;;;4950753;29;20036;-69
2023/07/11 14:50:24;;;;;;;1999.90;999.90;;;24.60;99.90;;;;;;4961147;28;20097;-71
2023/07/11 14:52:51;;;;;;;1999.90;999.90;;;24.50;99.90;;;;;;4942029;29;20143;-70
2023/07/11 14:55:18;;;;;;;1999.90;999.90;;;24.30;99.90;;;;;;4953567;29;20058;-68
2023/07/11 14:57:49;;;;;;;1999.90;999.90;;;24.40;99.90;;;;;;4952842;29;20035;-69
2023/07/11 15:00:19;;;;;;;1999.90;999.90;;;25.00;99.90;;;;;;4954155;29;20046;-69
2023/07/11 15:02:46;;;;;;;1999.90;999.90;;;25.70;99.90;;;;;;4953138;28;20054;-71
2023/07/11 15:05:16;;;;;;;1999.90;999.90;;;26.00;99.90;;;;;;4972815;28;20019;-71
2023/07/11 15:07:43;;;;;;;1999.90;999.90;;;25.90;99.90;;;;;;4959858;28;20105;-69
2023/07/11 15:10:09;;;;;;;1999.90;999.90;;;25.30;99.90;;;;;;4958587;28;20486;-69
2023/07/11 15:12:35;;;;;;;1999.90;999.90;;;25.10;99.90;;;;;;4953997;29;20541;-69
2023/07/11 15:15:01;;;;;;;1999.90;999.90;;;24.80;99.90;;;;;;4953513;28;20031;-69
2023/07/11 15:17:28;;;;;;;1999.90;999.90;;;24.80;99.90;;;;;;4957162;28;20090;-69
2023/07/11 15:19:53;;;;;;;1999.90;999.90;;;24.60;99.90;;;;;;4954135;28;20055;-69
2023/07/11 15:22:22;;;;;;;1999.90;999.90;;;24.80;99.90;;;;;;4952971;29;20066;-69
2023/07/11 15:24:48;;;;;;;1999.90;999.90;;;25.70;99.90;;;;;;4953700;29;20029;-69
2023/07/11 15:27:15;;;;;;;1999.90;999.90;;;26.50;99.90;;;;;;4953713;28;20038;-69
2023/07/11 15:29:42;;;;;;;1999.90;999.90;;;26.40;99.90;;;;;;4957667;28;20395;-71
2023/07/11 15:32:18;;;;;;;1999.90;999.90;;;27.10;99.90;;;;;;4957782;28;20038;-70
2023/07/11 15:34:43;;;;;;;1999.90;999.90;;;26.90;99.90;;;;;;4958103;29;20498;-69
2023/07/11 15:37:10;;;;;;;1999.90;999.90;;;26.20;99.90;;;;;;4957481;29;20042;-69
2023/07/11 15:39:35;;;;;;;1999.90;999.90;;;26.20;99.90;;;;;;4961395;28;20032;-70
2023/07/11 15:42:01;;;;;;;1999.90;999.90;;;27.10;99.90;;;;;;4955711;29;20081;-71
2023/07/11 15:44:27;;;;;;;1999.90;999.90;;;27.70;99.90;;;;;;4955440;28;20031;-69
2023/07/11 15:46:57;;;;;;;1999.90;999.90;;;28.20;99.90;;;;;;4947901;29;20042;-69
2023/07/11 15:49:25;;;;;;;1999.90;999.90;;;27.60;99.90;;;;;;4954276;28;20106;-69
2023/07/11 15:51:51;;;;;;;1999.90;999.90;;;27.00;99.90;;;;;;4957856;29;20027;-69
2023/07/11 15:54:17;;;;;;;1999.90;999.90;;;26.60;99.90;;;;;;4957535;28;20049;-71
2023/07/11 15:56:45;;;;;;;1999.90;999.90;;;26.10;99.90;;;;;;4942237;29;20035;-71
2023/07/11 15:59:20;;;;;;;1999.90;999.90;;;25.50;99.90;;;;;;4953128;29;20054;-69
2023/07/11 16:01:47;;;;;;;1999.90;999.90;;;25.00;99.90;;;;;;4957757;29;20027;-69
2023/07/11 16:04:21;;;;;;;1999.90;999.90;;;24.70;99.90;;;;;;4951379;29;20031;-69
2023/07/11 16:06:49;;;;;;;1999.90;999.90;;;24.80;99.90;;;;;;4957892;29;20027;-69
2023/07/11 16:09:22;;;;;;;1999.90;999.90;;;25.20;99.90;;;;;;4962350;28;20015;-71
2023/07/11 16:11:49;;;;;;;1999.90;999.90;;;24.90;99.90;;;;;;4957744;29;20034;-71
2023/07/11 16:14:15;;;;;;;1999.90;999.90;;;24.80;99.90;;;;;;4956698;29;20078;-69
2023/07/11 16:16:41;;;;;;;1999.90;999.90;;;24.60;99.90;;;;;;4956935;29;20398;-69
2023/07/11 16:19:14;;;;;;;1999.90;999.90;;;24.90;99.90;;;;;;4956783;29;20057;-69
2023/07/11 16:21:40;;;;;;;1999.90;999.90;;;24.80;99.90;;;;;;4940171;29;20035;-70
2023/07/11 16:24:21;;;;;;;1999.90;999.90;;;24.60;99.90;;;;;;4957426;29;20106;-69
2023/07/11 16:26:48;;;;;;;1999.90;999.90;;;24.60;99.90;;;;;;4957143;29;20019;-69
2023/07/11 16:29:24;;;;;;;1999.90;999.90;;;24.70;99.90;;;;;;4957323;29;20462;-69
2023/07/11 16:31:50;;;;;;;1999.90;999.90;;;24.70;99.90;;;;;;4956008;29;20023;-69
2023/07/11 16:34:21;;;;;;;1999.90;999.90;;;24.40;99.90;;;;;;4957223;29;20038;-71
2023/07/11 16:36:53;;;;;;;1999.90;999.90;;;24.20;99.90;;;;;;4955958;29;20459;-71
2023/07/11 16:39:21;;;;;;;1999.90;999.90;;;23.90;99.90;;;;;;4956825;28;20106;-69
2023/07/11 16:41:48;;;;;;;1999.90;999.90;;;23.70;99.90;;;;;;4957046;29;20027;-69
2023/07/11 16:44:14;;;;;;;1999.90;999.90;;;23.70;99.90;;;;;;4956884;29;20477;-68
2023/07/11 16:46:46;;;;;;;1999.90;999.90;;;23.80;99.90;;;;;;4956566;29;20086;-71
2023/07/11 16:49:17;;;;;;;1999.90;999.90;;;23.80;99.90;;;;;;4962054;28;20042;-71
2023/07/11 16:51:44;;;;;;;1999.90;999.90;;;23.70;99.90;;;;;;4956549;29;20038;-69
2023/07/11 16:54:18;;;;;;;1999.90;999.90;;;23.70;99.90;;;;;;4956765;29;20051;-69
2023/07/11 16:56:45;;;;;;;1999.90;999.90;;;23.80;99.90;;;;;;4939644;29;20064;-70
2023/07/11 16:59:13;;;;;;;1999.90;999.90;;;23.90;99.90;;;;;;4956960;29;20024;-70
2023/07/11 17:01:39;;;;;;;1999.90;999.90;;;23.80;99.90;;;;;;4956799;29;20020;-71
2023/07/11 17:04:06;;;;;;;1999.90;999.90;;;23.80;99.90;;;;;;4949184;29;20056;-69
2023/07/11 17:06:32;;;;;;;1999.90;999.90;;;23.80;99.90;;;;;;4957255;29;20031;-69
2023/07/11 17:09:01;;;;;;;1999.90;999.90;;;23.60;99.90;;;;;;4956532;29;20027;-69
2023/07/11 17:11:27;;;;;;;1999.90;999.90;;;23.40;99.90;;;;;;4956169;29;20034;-69
2023/07/11 17:13:53;;;;;;;1999.90;999.90;;;23.20;99.90;;;;;;4956863;29;20102;-70
2023/07/11 17:16:24;;;;;;;1999.90;999.90;;;23.00;99.90;;;;;;4957099;29;20027;-69
2023/07/11 17:18:50;;;;;;;1999.90;999.90;;;23.00;99.90;;;;;;4955589;29;20410;-69
2023/07/11 17:21:15;;;;;;;1999.90;999.90;;;22.80;99.90;;;;;;4954648;28;20027;-69
2023/07/11 17:23:41;;;;;;;1999.90;999.90;;;22.70;99.90;;;;;;4953231;29;20069;-69
2023/07/11 17:26:13;;;;;;;1999.90;999.90;;;22.70;99.90;;;;;;4956180;29;20031;-69
2023/07/11 17:28:40;;;;;;;1999.90;999.90;;;22.70;99.90;;;;;;4956693;29;20375;-69
2023/07/11 17:31:06;;;;;;;1999.90;999.90;;;22.70;99.90;;;;;;4956559;29;20040;-70
2023/07/11 17:33:31;;;;;;;1999.90;999.90;;;22.80;99.90;;;;;;4956563;29;20100;-69
2023/07/11 17:35:57;;;;;;;1999.90;999.90;;;22.80;99.90;;;;;;4956048;29;20023;-69
2023/07/11 17:38:26;;;;;;;1999.90;999.90;;;22.90;99.90;;;;;;4938954;29;20502;-69
2023/07/11 17:40:52;;;;;;;1999.90;999.90;;;22.80;99.90;;;;;;4955821;29;20031;-70
2023/07/11 17:43:21;;;;;;;1999.90;999.90;;;22.80;99.90;;;;;;4956279;29;20042;-69
2023/07/11 17:45:47;;;;;;;1999.90;999.90;;;22.80;99.90;;;;;;4955852;29;20027;-69
2023/07/11 17:48:25;;;;;;;1999.90;999.90;;;22.90;99.90;;;;;;4956234;29;20035;-69
2023/07/11 17:50:56;;;;;;;1999.90;999.90;;;23.00;99.90;;;;;;4955323;28;20023;-69
2023/07/11 17:53:22;;;;;;;1999.90;999.90;;;23.00;99.90;;;;;;4951621;28;20055;-69
2023/07/11 17:55:48;;;;;;;1999.90;999.90;;;22.90;99.90;;;;;;4950234;28;20020;-69
2023/07/11 17:58:21;;;;;;;1999.90;999.90;;;22.70;99.90;;;;;;4955899;29;20078;-69
2023/07/11 18:00:48;;;;;;;1999.90;999.90;;;22.60;99.90;;;;;;4955579;29;20024;-69
2023/07/11 18:03:14;;;;;;;1999.90;999.90;;;22.40;99.90;;;;;;4960945;28;20027;-69
2023/07/11 18:05:42;;;;;;;1999.90;999.90;;;22.30;99.90;;;;;;4971612;28;20046;-71
2023/07/11 18:08:20;;;;;;;1999.90;999.90;;;22.30;99.90;;;;;;4955798;29;20022;-68
2023/07/11 18:10:47;;;;;;;1999.90;999.90;;;22.20;99.90;;;;;;4955289;29;20023;-69
2023/07/11 18:13:13;;;;;;;1999.90;999.90;;;22.20;99.90;;;;;;4955216;29;20020;-69
2023/07/11 18:15:42;;;;;;;1999.90;999.90;;;22.10;99.90;;;;;;4947049;28;20031;-68
2023/07/11 18:18:26;;;;;;;1999.90;999.90;;;22.10;99.90;;;;;;4935757;29;20035;-69
2023/07/11 18:20:53;;;;;;;1999.90;999.90;;;22.00;99.90;;;;;;4936255;29;20035;-71
2023/07/11 18:23:19;;;;;;;1999.90;999.90;;;22.00;99.90;;;;;;4936217;29;20111;-69
2023/07/11 18:25:46;;;;;;;1999.90;999.90;;;21.90;99.90;;;;;;4946510;29;20053;-70
2023/07/11 18:28:16;;;;;;;1999.90;999.90;;;21.80;99.90;;;;;;4955280;29;20433;-69
2023/07/11 18:30:43;;;;;;;1999.90;999.90;;;21.80;99.90;;;;;;4955359;29;20022;-70
2023/07/11 18:33:09;;;;;;;1999.90;999.90;;;21.80;99.90;;;;;;4955632;29;20078;-69
2023/07/11 18:35:37;;;;;;;1999.90;999.90;;;21.90;99.90;;;;;;4955698;29;20023;-70
2023/07/11 18:38:11;;;;;;;1999.90;999.90;;;21.80;99.90;;;;;;4955318;29;20070;-69
2023/07/11 18:40:36;;;;;;;1999.90;999.90;;;21.90;99.90;;;;;;4955328;29;20082;-69
2023/07/11 18:43:04;;;;;;;1999.90;999.90;;;21.90;99.90;;;;;;4955351;29;20024;-69
2023/07/11 18:45:30;;;;;;;1999.90;999.90;;;21.90;99.90;;;;;;4955241;29;20023;-69
2023/07/11 18:47:56;;;;;;;1999.90;999.90;;;22.00;99.90;;;;;;4955589;29;20019;-69
2023/07/11 18:50:31;;;;;;;1999.90;999.90;;;21.90;99.90;;;;;;4954790;29;20356;-68
2023/07/11 18:52:57;;;;;;;1999.90;999.90;;;21.90;99.90;;;;;;4954689;28;20066;-69
2023/07/11 18:55:22;;;;;;;1999.90;999.90;;;21.80;99.90;;;;;;4954922;29;20027;-69
2023/07/11 18:57:49;;;;;;;1999.90;999.90;;;21.70;99.90;;;;;;4955466;29;20031;-69
2023/07/11 19:00:27;;;;;;;1999.90;999.90;;;21.70;99.90;;;;;;4955336;29;20095;-69
2023/07/11 19:02:52;;;;;;;1999.90;999.90;;;21.70;99.90;;;;;;4955491;28;20035;-70
2023/07/11 19:05:18;;;;;;;1999.90;999.90;;;21.60;99.90;;;;;;4974487;28;20026;-69
2023/07/11 19:07:44;;;;;;;1999.90;999.90;;;21.60;99.90;;;;;;4974305;28;20031;-70
2023/07/11 19:10:27;;;;;;;1999.90;999.90;;;21.60;99.90;;;;;;4963578;28;20044;-69
2023/07/11 19:12:54;;;;;;;1999.90;999.90;;;21.60;99.90;;;;;;4937701;29;20066;-70
2023/07/11 19:15:23;;;;;;;1999.90;999.90;;;21.50;99.90;;;;;;4954924;29;20031;-69
2023/07/11 19:17:48;;;;;;;1999.90;999.90;;;21.50;99.90;;;;;;4955290;29;20075;-68
2023/07/11 19:20:17;;;;;;;1999.90;999.90;;;21.50;99.90;;;;;;4954123;29;20455;-68
2023/07/11 19:22:48;;;;;;;1999.90;999.90;;;21.50;99.90;;;;;;4954964;29;20104;-68
2023/07/11 19:25:16;;;;;;;1999.90;999.90;;;21.50;99.90;;;;;;4955028;29;20031;-69
2023/07/11 19:27:43;;;;;;;1999.90;999.90;;;21.40;99.90;;;;;;4954738;29;20031;-68
2023/07/11 19:30:19;;;;;;;1999.90;999.90;;;21.30;99.90;;;;;;4955210;29;20396;-69
2023/07/11 19:32:45;;;;;;;1999.90;999.90;;;21.30;99.90;;;;;;4954563;29;20028;-69
2023/07/11 19:35:12;;;;;;;1999.90;999.90;;;21.30;99.90;;;;;;4954670;29;20127;-69
2023/07/11 19:37:42;;;;;;;1999.90;999.90;;;21.30;99.90;;;;;;4954560;29;20031;-69
2023/07/11 19:40:24;;;;;;;1999.90;999.90;;;21.30;99.90;;;;;;4954990;29;20098;-69
2023/07/11 19:42:51;;;;;;;1999.90;999.90;;;21.30;99.90;;;;;;4954857;29;20027;-69
2023/07/11 19:45:22;;;;;;;1999.90;999.90;;;21.30;99.90;;;;;;4937156;29;20418;-69
2023/07/11 19:47:49;;;;;;;1999.90;999.90;;;21.30;99.90;;;;;;4954471;29;20106;-70
2023/07/11 19:50:32;;;;;;;1999.90;999.90;;;21.30;99.90;;;;;;4954636;29;20208;-71
2023/07/11 19:52:58;;;;;;;;;;;21.30;99.90;;;;;;4937358;29;20209;-70
2023/07/11 19:55:25;;;;;;;1999.90;999.90;;;21.30;99.90;;;;;;4954780;29;20378;-68
2023/07/11 19:57:51;;;;;;;1999.90;999.90;;;21.30;99.90;;;;;;4954348;29;20395;-69
2023/07/11 20:00:22;;;;;;;1999.90;999.90;;;21.30;99.90;;;;;;4954721;29;20031;-69
2023/07/11 20:02:48;;;;;;;1999.90;999.90;;;21.30;99.90;;;;;;4954290;29;20200;-70
2023/07/11 20:05:14;;;;;;;1999.90;999.90;;;21.20;99.90;;;;;;4954415;29;20122;-69
2023/07/11 20:07:40;;;;;;;1999.90;999.90;;;21.20;99.90;;;;;;4954174;28;20020;-69
2023/07/11 20:10:32;;;;;;;1999.90;999.90;;;21.20;99.90;;;;;;4954570;28;20102;-69
2023/07/11 20:12:58;;;;;;;1999.90;999.90;;;21.10;99.90;;;;;;4954433;29;20019;-68
2023/07/11 20:15:24;;;;;;;1999.90;999.90;;;21.10;99.90;;;;;;4957369;28;20034;-70